sensor_id;sensor_type;location;lat;lon;timestamp;pressure;altitude;pressure_sealevel;temperature;humidity
14902;BME280;7542;49.078;9.194;2022-12-31T00:00:54;98370.72;;;16.44;64.95
14902;BME280;7542;49.078;9.194;2022-12-31T00:01:56;98379.47;;;16.44;64.84
14902;BME280;7542;49.078;9.194;2022-12-31T00:02:58;98381.91;;;16.46;64.75
14902;BME280;7542;49.078;9.194;2022-12-31T00:04:00;98377.19;;;16.48;65.48
14902;BME280;7542;49.078;9.194;2022-12-31T00:05:03;98385.94;;;16.48;64.90
14902;BME280;7542;49.078;9.194;2022-12-31T00:06:19;98383.31;;;16.48;64.18
14902;BME280;7542;49.078;9.194;2022-12-31T00:07:21;98374.56;;;16.48;64.54
14902;BME280;7542;49.078;9.194;2022-12-31T00:08:23;98382.50;;;16.48;64.63
14902;BME280;7542;49.078;9.194;2022-12-31T00:09:25;98383.13;;;16.50;64.61
14902;BME280;7542;49.078;9.194;2022-12-31T00:10:28;98386.56;;;16.50;65.52
14902;BME280;7542;49.078;9.194;2022-12-31T00:11:32;98387.38;;;16.51;65.50
14902;BME280;7542;49.078;9.194;2022-12-31T00:12:34;98399.59;;;16.52;65.71
14902;BME280;7542;49.078;9.194;2022-12-31T00:13:36;98393.25;;;16.53;64.99
14902;BME280;7542;49.078;9.194;2022-12-31T00:14:38;98386.13;;;16.53;65.53
14902;BME280;7542;49.078;9.194;2022-12-31T00:15:41;98383.28;;;16.55;65.51
14902;BME280;7542;49.078;9.194;2022-12-31T00:16:43;98392.03;;;16.56;65.78
14902;BME280;7542;49.078;9.194;2022-12-31T00:17:45;98394.66;;;16.56;65.18
14902;BME280;7542;49.078;9.194;2022-12-31T00:18:52;98387.53;;;16.56;65.73
14902;BME280;7542;49.078;9.194;2022-12-31T00:19:55;98389.97;;;16.58;65.46
14902;BME280;7542;49.078;9.194;2022-12-31T00:20:56;98390.56;;;16.60;65.60
14902;BME280;7542;49.078;9.194;2022-12-31T00:21:58;98391.59;;;16.59;64.84
14902;BME280;7542;49.078;9.194;2022-12-31T00:23:00;98389.56;;;16.61;65.12
14902;BME280;7542;49.078;9.194;2022-12-31T00:24:04;98397.50;;;16.61;65.52
14902;BME280;7542;49.078;9.194;2022-12-31T00:25:06;98393.84;;;16.62;65.37
14902;BME280;7542;49.078;9.194;2022-12-31T00:26:18;98386.47;;;16.64;65.42
14902;BME280;7542;49.078;9.194;2022-12-31T00:27:21;98398.69;;;16.65;64.52
14902;BME280;7542;49.078;9.194;2022-12-31T00:28:23;98398.69;;;16.65;65.23
14902;BME280;7542;49.078;9.194;2022-12-31T00:29:25;98398.47;;;16.66;64.79
14902;BME280;7542;49.078;9.194;2022-12-31T00:30:27;98397.66;;;16.66;65.14
14902;BME280;7542;49.078;9.194;2022-12-31T00:31:32;98408.03;;;16.67;64.87
14902;BME280;7542;49.078;9.194;2022-12-31T00:32:34;98408.25;;;16.66;64.91
14902;BME280;7542;49.078;9.194;2022-12-31T00:33:36;98409.69;;;16.68;64.66
14902;BME280;7542;49.078;9.194;2022-12-31T00:34:38;98412.34;;;16.68;64.97
14902;BME280;7542;49.078;9.194;2022-12-31T00:35:40;98410.50;;;16.69;64.85
14902;BME280;7542;49.078;9.194;2022-12-31T00:36:42;98409.88;;;16.67;64.96
14902;BME280;7542;49.078;9.194;2022-12-31T00:37:46;98408.88;;;16.68;64.72
14902;BME280;7542;49.078;9.194;2022-12-31T00:38:50;98413.75;;;16.71;64.83
14902;BME280;7542;49.078;9.194;2022-12-31T00:39:52;98407.63;;;16.70;65.98
14902;BME280;7542;49.078;9.194;2022-12-31T00:40:54;98407.63;;;16.70;64.84
14902;BME280;7542;49.078;9.194;2022-12-31T00:41:56;98402.97;;;16.72;64.86
14902;BME280;7542;49.078;9.194;2022-12-31T00:42:58;98404.81;;;16.72;65.19
14902;BME280;7542;49.078;9.194;2022-12-31T00:44:00;98403.97;;;16.71;65.62
14902;BME280;7542;49.078;9.194;2022-12-31T00:45:02;98396.63;;;16.73;65.95
14902;BME280;7542;49.078;9.194;2022-12-31T00:46:05;98405.19;;;16.75;65.16
14902;BME280;7542;49.078;9.194;2022-12-31T00:47:07;98407.22;;;16.73;65.27
14902;BME280;7542;49.078;9.194;2022-12-31T00:48:09;98407.81;;;16.75;65.31
14902;BME280;7542;49.078;9.194;2022-12-31T00:49:11;98406.78;;;16.76;66.30
14902;BME280;7542;49.078;9.194;2022-12-31T00:50:13;98405.75;;;16.77;65.18
14902;BME280;7542;49.078;9.194;2022-12-31T00:51:19;98404.16;;;16.76;66.11
14902;BME280;7542;49.078;9.194;2022-12-31T00:52:21;98408.63;;;16.76;65.88
14902;BME280;7542;49.078;9.194;2022-12-31T00:53:24;98409.44;;;16.76;66.24
14902;BME280;7542;49.078;9.194;2022-12-31T00:54:26;98411.88;;;16.78;65.81
14902;BME280;7542;49.078;9.194;2022-12-31T00:55:29;98411.06;;;16.77;65.06
14902;BME280;7542;49.078;9.194;2022-12-31T00:56:31;98408.63;;;16.76;65.29
14902;BME280;7542;49.078;9.194;2022-12-31T00:57:33;98424.09;;;16.79;65.68
14902;BME280;7542;49.078;9.194;2022-12-31T00:58:35;98418.78;;;16.79;65.19
14902;BME280;7542;49.078;9.194;2022-12-31T00:59:37;98431.81;;;16.80;65.54
14902;BME280;7542;49.078;9.194;2022-12-31T01:00:40;98422.84;;;16.81;65.63
14902;BME280;7542;49.078;9.194;2022-12-31T01:01:42;98422.84;;;16.81;64.80
14902;BME280;7542;49.078;9.194;2022-12-31T01:02:44;98429.78;;;16.83;64.58
14902;BME280;7542;49.078;9.194;2022-12-31T01:03:48;98438.53;;;16.83;64.29
14902;BME280;7542;49.078;9.194;2022-12-31T01:04:50;98426.28;;;16.82;65.68
14902;BME280;7542;49.078;9.194;2022-12-31T01:05:57;98429.78;;;16.83;64.69
14902;BME280;7542;49.078;9.194;2022-12-31T01:06:59;98431.59;;;16.82;65.10
14902;BME280;7542;49.078;9.194;2022-12-31T01:08:02;98433.84;;;16.85;64.65
14902;BME280;7542;49.078;9.194;2022-12-31T01:09:06;98438.09;;;16.86;65.42
14902;BME280;7542;49.078;9.194;2022-12-31T01:10:08;98446.03;;;16.86;65.72
14902;BME280;7542;49.078;9.194;2022-12-31T01:11:11;98435.22;;;16.88;65.35
14902;BME280;7542;49.078;9.194;2022-12-31T01:12:19;98436.25;;;16.87;65.44
14902;BME280;7542;49.078;9.194;2022-12-31T01:13:21;98431.56;;;16.89;64.56
14902;BME280;7542;49.078;9.194;2022-12-31T01:14:23;98435.81;;;16.90;64.56
14902;BME280;7542;49.078;9.194;2022-12-31T01:15:25;98444.59;;;16.90;64.75
14902;BME280;7542;49.078;9.194;2022-12-31T01:17:30;98445.78;;;16.94;64.75
14902;BME280;7542;49.078;9.194;2022-12-31T01:18:32;98438.03;;;16.93;64.84
14902;BME280;7542;49.078;9.194;2022-12-31T01:19:34;98446.38;;;16.96;64.57
14902;BME280;7542;49.078;9.194;2022-12-31T01:20:42;98444.78;;;16.95;63.81
14902;BME280;7542;49.078;9.194;2022-12-31T01:21:47;98459.63;;;16.96;64.42
14902;BME280;7542;49.078;9.194;2022-12-31T01:22:50;98448.22;;;16.96;64.96
14902;BME280;7542;49.078;9.194;2022-12-31T01:23:51;98462.88;;;16.98;64.47
14902;BME280;7542;49.078;9.194;2022-12-31T01:24:53;98453.31;;;16.97;63.84
14902;BME280;7542;49.078;9.194;2022-12-31T01:25:58;98468.75;;;17.00;64.27
14902;BME280;7542;49.078;9.194;2022-12-31T01:27:00;98459.41;;;16.98;64.04
14902;BME280;7542;49.078;9.194;2022-12-31T01:28:04;98464.28;;;17.01;64.93
14902;BME280;7542;49.078;9.194;2022-12-31T01:29:08;98464.88;;;17.03;64.39
14902;BME280;7542;49.078;9.194;2022-12-31T01:30:11;98469.13;;;17.04;64.16
14902;BME280;7542;49.078;9.194;2022-12-31T01:31:17;98477.94;;;17.04;63.80
14902;BME280;7542;49.078;9.194;2022-12-31T01:32:19;98472.81;;;17.03;63.69
14902;BME280;7542;49.078;9.194;2022-12-31T01:33:21;98475.28;;;17.04;63.64
14902;BME280;7542;49.078;9.194;2022-12-31T01:34:23;98475.06;;;17.06;63.79
14902;BME280;7542;49.078;9.194;2022-12-31T01:35:25;98482.78;;;17.07;64.26
14902;BME280;7542;49.078;9.194;2022-12-31T01:36:30;98491.31;;;17.09;63.34
14902;BME280;7542;49.078;9.194;2022-12-31T01:37:32;98486.03;;;17.09;64.12
14902;BME280;7542;49.078;9.194;2022-12-31T01:38:34;98481.31;;;17.12;64.10
14902;BME280;7542;49.078;9.194;2022-12-31T01:39:36;98491.09;;;17.11;63.97
14902;BME280;7542;49.078;9.194;2022-12-31T01:40:39;98492.94;;;17.10;63.65
14902;BME280;7542;49.078;9.194;2022-12-31T01:41:45;98483.16;;;17.11;64.07
14902;BME280;7542;49.078;9.194;2022-12-31T01:42:56;98486.63;;;17.12;64.11
14902;BME280;7542;49.078;9.194;2022-12-31T01:45:25;98490.31;;;17.10;63.31
14902;BME280;7542;49.078;9.194;2022-12-31T01:47:04;98489.50;;;17.10;64.22
14902;BME280;7542;49.078;9.194;2022-12-31T01:48:19;98486.84;;;17.10;63.39
14902;BME280;7542;49.078;9.194;2022-12-31T01:49:39;98480.50;;;17.11;63.39
14902;BME280;7542;49.078;9.194;2022-12-31T01:50:45;98491.91;;;17.12;63.46
14902;BME280;7542;49.078;9.194;2022-12-31T01:51:56;98498.25;;;17.10;63.46
14902;BME280;7542;49.078;9.194;2022-12-31T01:53:04;98489.28;;;17.12;63.79
14902;BME280;7542;49.078;9.194;2022-12-31T01:54:09;98490.31;;;17.10;63.17
14902;BME280;7542;49.078;9.194;2022-12-31T01:56:52;98483.59;;;17.08;63.26
14902;BME280;7542;49.078;9.194;2022-12-31T01:58:13;98492.34;;;17.08;63.23
14902;BME280;7542;49.078;9.194;2022-12-31T01:59:17;98475.66;;;17.08;63.50
14902;BME280;7542;49.078;9.194;2022-12-31T02:00:21;98482.56;;;17.09;63.37
14902;BME280;7542;49.078;9.194;2022-12-31T02:01:28;98483.38;;;17.09;63.79
14902;BME280;7542;49.078;9.194;2022-12-31T02:02:31;98476.25;;;17.10;63.43
14902;BME280;7542;49.078;9.194;2022-12-31T02:03:34;98485.81;;;17.11;63.46
14902;BME280;7542;49.078;9.194;2022-12-31T02:04:36;98493.16;;;17.09;62.95
14902;BME280;7542;49.078;9.194;2022-12-31T02:06:14;98488.09;;;17.07;63.37
14902;BME280;7542;49.078;9.194;2022-12-31T02:07:18;98482.78;;;17.07;63.14
14902;BME280;7542;49.078;9.194;2022-12-31T02:08:20;98490.94;;;17.06;63.02
14902;BME280;7542;49.078;9.194;2022-12-31T02:09:22;98488.31;;;17.06;63.55
14902;BME280;7542;49.078;9.194;2022-12-31T02:10:24;98487.50;;;17.05;63.62
14902;BME280;7542;49.078;9.194;2022-12-31T02:11:31;98486.47;;;17.06;63.41
14902;BME280;7542;49.078;9.194;2022-12-31T02:12:37;98485.03;;;17.04;63.27
14902;BME280;7542;49.078;9.194;2022-12-31T02:13:39;98482.19;;;17.05;63.27
14902;BME280;7542;49.078;9.194;2022-12-31T02:14:49;98485.88;;;17.04;62.50
14902;BME280;7542;49.078;9.194;2022-12-31T02:16:20;98486.06;;;17.03;63.18
14902;BME280;7542;49.078;9.194;2022-12-31T02:25:50;98487.16;;;16.95;63.11
14902;BME280;7542;49.078;9.194;2022-12-31T02:30:19;98481.44;;;16.92;63.11
14902;BME280;7542;49.078;9.194;2022-12-31T02:31:33;98475.34;;;16.91;62.63
14902;BME280;7542;49.078;9.194;2022-12-31T02:32:51;98489.38;;;16.92;63.02
14902;BME280;7542;49.078;9.194;2022-12-31T02:34:08;98486.97;;;16.90;62.55
14902;BME280;7542;49.078;9.194;2022-12-31T02:35:23;98490.19;;;16.92;62.97
14902;BME280;7542;49.078;9.194;2022-12-31T02:36:35;98495.50;;;16.92;63.01
14902;BME280;7542;49.078;9.194;2022-12-31T02:37:41;98499.16;;;16.91;63.14
14902;BME280;7542;49.078;9.194;2022-12-31T02:38:46;98495.50;;;16.92;63.30
14902;BME280;7542;49.078;9.194;2022-12-31T02:39:50;98503.44;;;16.92;63.24
14902;BME280;7542;49.078;9.194;2022-12-31T02:40:53;98502.44;;;16.93;62.34
14902;BME280;7542;49.078;9.194;2022-12-31T02:41:55;98499.78;;;16.93;62.57
14902;BME280;7542;49.078;9.194;2022-12-31T02:42:57;98496.31;;;16.93;62.33
14902;BME280;7542;49.078;9.194;2022-12-31T02:43:59;98504.66;;;16.96;62.52
14902;BME280;7542;49.078;9.194;2022-12-31T02:45:00;98500.97;;;16.97;63.23
14902;BME280;7542;49.078;9.194;2022-12-31T02:46:22;98496.28;;;16.99;62.62
14902;BME280;7542;49.078;9.194;2022-12-31T02:47:42;98492.59;;;17.00;62.03
14902;BME280;7542;49.078;9.194;2022-12-31T02:49:00;98500.53;;;17.00;62.38
14902;BME280;7542;49.078;9.194;2022-12-31T02:50:28;98493.19;;;17.02;62.07
14902;BME280;7542;49.078;9.194;2022-12-31T02:51:46;98493.41;;;17.01;62.22
14902;BME280;7542;49.078;9.194;2022-12-31T02:54:27;98480.16;;;17.01;61.70
14902;BME280;7542;49.078;9.194;2022-12-31T02:59:57;98486.13;;;16.96;61.63
14902;BME280;7542;49.078;9.194;2022-12-31T03:01:31;98481.63;;;16.97;62.08
14902;BME280;7542;49.078;9.194;2022-12-31T03:02:54;98482.88;;;16.94;61.92
14902;BME280;7542;49.078;9.194;2022-12-31T03:03:57;98486.34;;;16.95;62.21
14902;BME280;7542;49.078;9.194;2022-12-31T03:05:27;98480.81;;;16.96;61.65
14902;BME280;7542;49.078;9.194;2022-12-31T03:06:30;98487.97;;;16.96;61.14
14902;BME280;7542;49.078;9.194;2022-12-31T03:07:32;98487.16;;;16.95;62.14
14902;BME280;7542;49.078;9.194;2022-12-31T03:08:34;98478.97;;;16.97;62.09
14902;BME280;7542;49.078;9.194;2022-12-31T03:09:56;98481.41;;;16.98;61.05
14902;BME280;7542;49.078;9.194;2022-12-31T03:10:58;98486.50;;;17.00;61.54
14902;BME280;7542;49.078;9.194;2022-12-31T03:12:25;98474.44;;;17.04;62.02
14902;BME280;7542;49.078;9.194;2022-12-31T03:13:46;98480.97;;;17.01;60.91
14902;BME280;7542;49.078;9.194;2022-12-31T03:14:48;98475.47;;;17.03;61.39
14902;BME280;7542;49.078;9.194;2022-12-31T03:15:50;98480.97;;;17.01;61.86
14902;BME280;7542;49.078;9.194;2022-12-31T03:16:52;98478.91;;;17.03;61.66
14902;BME280;7542;49.078;9.194;2022-12-31T03:18:01;98479.94;;;17.02;61.17
14902;BME280;7542;49.078;9.194;2022-12-31T03:19:03;98480.38;;;16.99;61.72
14902;BME280;7542;49.078;9.194;2022-12-31T03:20:49;98482.00;;;17.00;61.79
14902;BME280;7542;49.078;9.194;2022-12-31T03:22:13;98479.56;;;16.99;61.67
14902;BME280;7542;49.078;9.194;2022-12-31T03:23:37;98480.38;;;16.99;60.75
14902;BME280;7542;49.078;9.194;2022-12-31T03:24:39;98487.75;;;16.97;60.79
14902;BME280;7542;49.078;9.194;2022-12-31T03:26:00;98486.94;;;16.97;60.95
14902;BME280;7542;49.078;9.194;2022-12-31T03:27:02;98490.59;;;16.96;60.81
14902;BME280;7542;49.078;9.194;2022-12-31T03:28:08;98490.38;;;16.97;61.69
14902;BME280;7542;49.078;9.194;2022-12-31T03:29:10;98505.47;;;16.97;61.04
14902;BME280;7542;49.078;9.194;2022-12-31T03:30:15;98494.88;;;16.97;61.70
14902;BME280;7542;49.078;9.194;2022-12-31T03:31:17;98497.53;;;16.97;61.29
14902;BME280;7542;49.078;9.194;2022-12-31T03:32:19;98499.94;;;16.98;61.07
14902;BME280;7542;49.078;9.194;2022-12-31T03:33:21;98495.69;;;16.97;60.46
14902;BME280;7542;49.078;9.194;2022-12-31T03:34:23;98496.50;;;16.98;61.67
14902;BME280;7542;49.078;9.194;2022-12-31T03:35:28;98496.06;;;17.01;60.84
14902;BME280;7542;49.078;9.194;2022-12-31T03:36:30;98484.66;;;17.00;61.62
14902;BME280;7542;49.078;9.194;2022-12-31T03:37:32;98497.91;;;17.00;61.85
14902;BME280;7542;49.078;9.194;2022-12-31T03:38:34;98500.13;;;17.03;60.98
14902;BME280;7542;49.078;9.194;2022-12-31T03:39:35;98499.13;;;17.04;61.08
14902;BME280;7542;49.078;9.194;2022-12-31T03:40:48;98501.53;;;17.06;60.95
14902;BME280;7542;49.078;9.194;2022-12-31T03:41:50;98506.03;;;17.05;60.63
14902;BME280;7542;49.078;9.194;2022-12-31T03:42:52;98502.34;;;17.06;60.71
14902;BME280;7542;49.078;9.194;2022-12-31T03:43:54;98502.94;;;17.08;60.68
14902;BME280;7542;49.078;9.194;2022-12-31T03:44:56;98508.25;;;17.08;61.30
14902;BME280;7542;49.078;9.194;2022-12-31T03:45:57;98505.59;;;17.08;61.17
14902;BME280;7542;49.078;9.194;2022-12-31T03:47:02;98500.09;;;17.10;60.52
14902;BME280;7542;49.078;9.194;2022-12-31T03:48:06;98513.13;;;17.12;61.15
14902;BME280;7542;49.078;9.194;2022-12-31T03:49:08;98507.00;;;17.11;61.33
14902;BME280;7542;49.078;9.194;2022-12-31T03:50:13;98509.66;;;17.11;61.23
14902;BME280;7542;49.078;9.194;2022-12-31T03:51:15;98508.63;;;17.12;60.36
14902;BME280;7542;49.078;9.194;2022-12-31T03:52:17;98505.75;;;17.14;60.26
14902;BME280;7542;49.078;9.194;2022-12-31T03:53:19;98497.81;;;17.14;61.28
14902;BME280;7542;49.078;9.194;2022-12-31T03:54:21;98498.63;;;17.14;61.20
14902;BME280;7542;49.078;9.194;2022-12-31T03:55:23;98493.53;;;17.13;60.63
14902;BME280;7542;49.078;9.194;2022-12-31T03:56:25;98504.94;;;17.13;60.34
14902;BME280;7542;49.078;9.194;2022-12-31T03:57:28;98501.28;;;17.14;60.80
14902;BME280;7542;49.078;9.194;2022-12-31T03:58:29;98496.78;;;17.15;60.32
14902;BME280;7542;49.078;9.194;2022-12-31T03:59:31;98496.78;;;17.15;60.72
14902;BME280;7542;49.078;9.194;2022-12-31T04:00:33;98512.69;;;17.15;60.55
14902;BME280;7542;49.078;9.194;2022-12-31T04:01:36;98511.69;;;17.16;61.03
14902;BME280;7542;49.078;9.194;2022-12-31T04:02:38;98501.69;;;17.18;60.24
14902;BME280;7542;49.078;9.194;2022-12-31T04:03:40;98503.28;;;17.19;60.59
14902;BME280;7542;49.078;9.194;2022-12-31T04:04:42;98519.41;;;17.17;60.32
14902;BME280;7542;49.078;9.194;2022-12-31T04:05:43;98505.13;;;17.18;60.79
14902;BME280;7542;49.078;9.194;2022-12-31T04:06:45;98516.31;;;17.20;60.69
14902;BME280;7542;49.078;9.194;2022-12-31T04:07:48;98503.88;;;17.21;60.40
14902;BME280;7542;49.078;9.194;2022-12-31T04:08:49;98501.25;;;17.21;60.60
14902;BME280;7542;49.078;9.194;2022-12-31T04:09:51;98497.78;;;17.20;60.16
14902;BME280;7542;49.078;9.194;2022-12-31T04:10:53;98515.06;;;17.23;60.99
14902;BME280;7542;49.078;9.194;2022-12-31T04:11:55;98509.78;;;17.23;60.14
14902;BME280;7542;49.078;9.194;2022-12-31T04:12:57;98517.50;;;17.24;60.65
14902;BME280;7542;49.078;9.194;2022-12-31T04:14:00;98506.72;;;17.26;60.65
14902;BME280;7542;49.078;9.194;2022-12-31T04:15:03;98504.25;;;17.24;60.29
14902;BME280;7542;49.078;9.194;2022-12-31T04:16:05;98514.84;;;17.24;60.37
14902;BME280;7542;49.078;9.194;2022-12-31T04:17:07;98504.06;;;17.26;60.49
14902;BME280;7542;49.078;9.194;2022-12-31T04:18:09;98505.69;;;17.27;60.90
14902;BME280;7542;49.078;9.194;2022-12-31T04:19:11;98506.28;;;17.29;60.67
14902;BME280;7542;49.078;9.194;2022-12-31T04:20:15;98513.22;;;17.30;60.72
14902;BME280;7542;49.078;9.194;2022-12-31T04:21:16;98513.22;;;17.30;60.52
14902;BME280;7542;49.078;9.194;2022-12-31T04:22:19;98521.97;;;17.30;60.46
14902;BME280;7542;49.078;9.194;2022-12-31T04:23:20;98513.22;;;17.30;60.67
14902;BME280;7542;49.078;9.194;2022-12-31T04:24:22;98513.00;;;17.31;60.72
14902;BME280;7542;49.078;9.194;2022-12-31T04:25:24;98517.03;;;17.34;60.15
14902;BME280;7542;49.078;9.194;2022-12-31T04:26:26;98530.50;;;17.32;60.71
14902;BME280;7542;49.078;9.194;2022-12-31T04:27:28;98517.25;;;17.32;60.60
14902;BME280;7542;49.078;9.194;2022-12-31T04:28:29;98524.78;;;17.35;60.25
14902;BME280;7542;49.078;9.194;2022-12-31T04:29:31;98521.09;;;17.36;60.26
14902;BME280;7542;49.078;9.194;2022-12-31T04:30:33;98519.88;;;17.39;60.70
14902;BME280;7542;49.078;9.194;2022-12-31T04:31:35;98522.53;;;17.39;60.28
14902;BME280;7542;49.078;9.194;2022-12-31T04:32:37;98518.84;;;17.40;60.66
14902;BME280;7542;49.078;9.194;2022-12-31T04:33:39;98519.66;;;17.41;60.23
14902;BME280;7542;49.078;9.194;2022-12-31T04:34:41;98521.28;;;17.42;60.38
14902;BME280;7542;49.078;9.194;2022-12-31T04:35:43;98519.44;;;17.42;60.59
14902;BME280;7542;49.078;9.194;2022-12-31T04:36:45;98515.16;;;17.41;60.04
14902;BME280;7542;49.078;9.194;2022-12-31T04:37:47;98529.22;;;17.42;60.70
14902;BME280;7542;49.078;9.194;2022-12-31T04:38:49;98525.31;;;17.44;60.22
14902;BME280;7542;49.078;9.194;2022-12-31T04:39:50;98529.59;;;17.45;60.60
14902;BME280;7542;49.078;9.194;2022-12-31T04:40:52;98528.56;;;17.46;60.55
14902;BME280;7542;49.078;9.194;2022-12-31T04:42:12;98527.16;;;17.44;60.40
14902;BME280;7542;49.078;9.194;2022-12-31T04:43:14;98535.72;;;17.46;60.26
14902;BME280;7542;49.078;9.194;2022-12-31T04:44:16;98535.72;;;17.46;60.22
14902;BME280;7542;49.078;9.194;2022-12-31T04:45:18;98533.88;;;17.46;60.70
14902;BME280;7542;49.078;9.194;2022-12-31T04:46:30;98538.13;;;17.47;60.40
14902;BME280;7542;49.078;9.194;2022-12-31T04:47:32;98533.69;;;17.48;61.10
14902;BME280;7542;49.078;9.194;2022-12-31T04:48:34;98545.91;;;17.49;60.16
14902;BME280;7542;49.078;9.194;2022-12-31T04:49:36;98548.56;;;17.49;60.92
14902;BME280;7542;49.078;9.194;2022-12-31T04:50:37;98523.06;;;17.48;60.74
14902;BME280;7542;49.078;9.194;2022-12-31T04:51:39;98531.63;;;17.50;60.79
14902;BME280;7542;49.078;9.194;2022-12-31T04:52:41;98523.44;;;17.51;60.31
14902;BME280;7542;49.078;9.194;2022-12-31T04:53:46;98542.00;;;17.51;60.57
14902;BME280;7542;49.078;9.194;2022-12-31T04:54:48;98528.97;;;17.50;60.23
14902;BME280;7542;49.078;9.194;2022-12-31T04:55:50;98536.47;;;17.53;60.45
14902;BME280;7542;49.078;9.194;2022-12-31T04:56:53;98533.84;;;17.53;59.81
14902;BME280;7542;49.078;9.194;2022-12-31T04:57:54;98536.25;;;17.54;60.12
14902;BME280;7542;49.078;9.194;2022-12-31T04:58:56;98540.53;;;17.55;60.26
14902;BME280;7542;49.078;9.194;2022-12-31T04:59:58;98530.75;;;17.56;60.64
14902;BME280;7542;49.078;9.194;2022-12-31T05:01:00;98535.81;;;17.57;60.19
14902;BME280;7542;49.078;9.194;2022-12-31T05:02:02;98534.22;;;17.56;59.85
14902;BME280;7542;49.078;9.194;2022-12-31T05:03:04;98545.63;;;17.57;59.98
14902;BME280;7542;49.078;9.194;2022-12-31T05:04:06;98534.59;;;17.60;60.01
14902;BME280;7542;49.078;9.194;2022-12-31T05:05:08;98543.78;;;17.57;59.84
14902;BME280;7542;49.078;9.194;2022-12-31T05:06:17;98547.88;;;17.60;60.56
14902;BME280;7542;49.078;9.194;2022-12-31T05:07:19;98551.31;;;17.60;60.19
14902;BME280;7542;49.078;9.194;2022-12-31T05:08:21;98547.41;;;17.63;59.78
14902;BME280;7542;49.078;9.194;2022-12-31T05:09:23;98539.25;;;17.64;59.92
14902;BME280;7542;49.078;9.194;2022-12-31T05:10:27;98540.06;;;17.65;60.32
14902;BME280;7542;49.078;9.194;2022-12-31T05:11:30;98534.53;;;17.66;59.87
14902;BME280;7542;49.078;9.194;2022-12-31T05:12:31;98543.53;;;17.65;59.68
14902;BME280;7542;49.078;9.194;2022-12-31T05:13:33;98553.69;;;17.68;60.52
14902;BME280;7542;49.078;9.194;2022-12-31T05:14:35;98545.72;;;17.68;60.56
14902;BME280;7542;49.078;9.194;2022-12-31T05:15:38;98549.03;;;17.71;60.16
14902;BME280;7542;49.078;9.194;2022-12-31T05:16:40;98554.53;;;17.69;60.08
14902;BME280;7542;49.078;9.194;2022-12-31T05:17:42;98563.31;;;17.70;60.16
14902;BME280;7542;49.078;9.194;2022-12-31T05:18:44;98553.31;;;17.72;60.05
14902;BME280;7542;49.078;9.194;2022-12-31T05:19:45;98554.34;;;17.71;60.14
14902;BME280;7542;49.078;9.194;2022-12-31T05:20:47;98554.34;;;17.71;60.15
14902;BME280;7542;49.078;9.194;2022-12-31T05:21:49;98559.63;;;17.71;60.03
14902;BME280;7542;49.078;9.194;2022-12-31T05:23:10;98552.72;;;17.70;59.79
14902;BME280;7542;49.078;9.194;2022-12-31T05:24:11;98570.25;;;17.71;60.50
14902;BME280;7542;49.078;9.194;2022-12-31T05:25:14;98562.06;;;17.72;60.37
14902;BME280;7542;49.078;9.194;2022-12-31T05:26:16;98560.22;;;17.73;60.34
14902;BME280;7542;49.078;9.194;2022-12-31T05:27:18;98561.03;;;17.73;60.40
14902;BME280;7542;49.078;9.194;2022-12-31T05:28:20;98557.59;;;17.73;60.51
14902;BME280;7542;49.078;9.194;2022-12-31T05:29:21;98556.78;;;17.72;60.10
14902;BME280;7542;49.078;9.194;2022-12-31T05:30:23;98556.56;;;17.74;59.97
14902;BME280;7542;49.078;9.194;2022-12-31T05:31:26;98553.91;;;17.74;60.24
14902;BME280;7542;49.078;9.194;2022-12-31T05:32:28;98561.63;;;17.75;60.04
14902;BME280;7542;49.078;9.194;2022-12-31T05:33:29;98551.84;;;17.76;59.84
14902;BME280;7542;49.078;9.194;2022-12-31T05:34:31;98556.09;;;17.77;60.57
14902;BME280;7542;49.078;9.194;2022-12-31T05:35:33;98545.72;;;17.75;60.30
14902;BME280;7542;49.078;9.194;2022-12-31T05:36:35;98547.34;;;17.76;59.97
14902;BME280;7542;49.078;9.194;2022-12-31T05:37:37;98542.03;;;17.76;60.30
14902;BME280;7542;49.078;9.194;2022-12-31T05:38:39;98552.44;;;17.78;60.44
14902;BME280;7542;49.078;9.194;2022-12-31T05:39:41;98540.78;;;17.79;60.29
14902;BME280;7542;49.078;9.194;2022-12-31T05:40:43;98551.41;;;17.79;60.24
14902;BME280;7542;49.078;9.194;2022-12-31T05:41:45;98550.38;;;17.80;60.14
14902;BME280;7542;49.078;9.194;2022-12-31T05:42:49;98552.00;;;17.81;60.22
14902;BME280;7542;49.078;9.194;2022-12-31T05:43:50;98553.00;;;17.80;60.22
14902;BME280;7542;49.078;9.194;2022-12-31T05:44:52;98555.66;;;17.80;60.37
14902;BME280;7542;49.078;9.194;2022-12-31T05:45:54;98551.19;;;17.80;60.35
14902;BME280;7542;49.078;9.194;2022-12-31T05:46:56;98553.84;;;17.80;60.50
14902;BME280;7542;49.078;9.194;2022-12-31T05:47:58;98557.91;;;17.83;60.46
14902;BME280;7542;49.078;9.194;2022-12-31T05:48:59;98555.25;;;17.83;59.58
14902;BME280;7542;49.078;9.194;2022-12-31T05:50:01;98568.28;;;17.84;60.43
14902;BME280;7542;49.078;9.194;2022-12-31T05:51:03;98570.13;;;17.84;60.23
14902;BME280;7542;49.078;9.194;2022-12-31T05:52:06;98573.38;;;17.86;60.17
14902;BME280;7542;49.078;9.194;2022-12-31T05:53:08;98579.28;;;17.88;60.28
14902;BME280;7542;49.078;9.194;2022-12-31T05:54:10;98568.66;;;17.88;59.95
14902;BME280;7542;49.078;9.194;2022-12-31T05:55:12;98577.22;;;17.90;60.46
14902;BME280;7542;49.078;9.194;2022-12-31T05:56:14;98563.34;;;17.88;60.19
14902;BME280;7542;49.078;9.194;2022-12-31T05:57:15;98577.84;;;17.92;60.19
14902;BME280;7542;49.078;9.194;2022-12-31T05:58:17;98574.16;;;17.93;60.16
14902;BME280;7542;49.078;9.194;2022-12-31T05:59:19;98569.66;;;17.93;60.46
14902;BME280;7542;49.078;9.194;2022-12-31T06:00:21;98581.06;;;17.94;60.16
14902;BME280;7542;49.078;9.194;2022-12-31T06:01:23;98567.81;;;17.94;59.94
14902;BME280;7542;49.078;9.194;2022-12-31T06:02:25;98573.13;;;17.94;60.31
14902;BME280;7542;49.078;9.194;2022-12-31T06:03:27;98573.69;;;17.96;59.89
14902;BME280;7542;49.078;9.194;2022-12-31T06:04:29;98574.50;;;17.96;59.97
14902;BME280;7542;49.078;9.194;2022-12-31T06:05:30;98568.19;;;17.98;60.11
14902;BME280;7542;49.078;9.194;2022-12-31T06:06:32;98571.63;;;17.98;59.86
14902;BME280;7542;49.078;9.194;2022-12-31T06:07:34;98570.03;;;17.97;60.02
14902;BME280;7542;49.078;9.194;2022-12-31T06:08:36;98578.78;;;17.98;59.71